Time;durP1;ratioP1;P1;durP2;ratioP2;P2;SDS_P1;SDS_P2;PMS_P1;PMS_P2;Temp;Humidity;BMP_temperature;BMP_pressure;BME280_temperature;BME280_humidity;BME280_pressure;Samples;Min_cycle;Max_cycle;Signal;HPM_P1;HPM_P2
2022/11/22 00:00:52;;;;;;;9.67;3.83;;;;;;;8.03;86.48;96739.66;4964267;28;103794;-61
2022/11/22 00:03:20;;;;;;;5.90;3.40;;;;;;;8.01;86.94;96738.13;4962611;28;103241;-58
2022/11/22 00:05:48;;;;;;;6.43;3.40;;;;;;;8.11;86.99;96747.66;4965842;28;103020;-58
2022/11/22 00:08:17;;;;;;;5.00;3.00;;;;;;;8.18;86.61;96737.41;4963678;28;104499;-58
2022/11/22 00:10:48;;;;;;;6.93;3.57;;;;;;;8.23;86.39;96735.16;4966240;28;103276;-59
2022/11/22 00:13:16;;;;;;;4.23;2.67;;;;;;;8.23;86.36;96729.06;4963893;28;103872;-59
2022/11/22 00:15:44;;;;;;;6.67;3.67;;;;;;;8.01;86.76;96709.22;4964448;28;103147;-58
2022/11/22 00:18:14;;;;;;;4.43;3.00;;;;;;;7.99;87.35;96704.13;4963448;28;102733;-58
2022/11/22 00:20:41;;;;;;;5.90;3.00;;;;;;;8.10;87.13;96700.47;4966401;28;104229;-58
2022/11/22 00:23:09;;;;;;;5.97;3.30;;;;;;;8.08;87.82;96699.81;4966393;28;103207;-58
2022/11/22 00:25:37;;;;;;;4.53;2.90;;;;;;;8.13;87.64;96692.31;4965426;28;103014;-58
2022/11/22 00:28:06;;;;;;;3.90;2.83;;;;;;;8.20;87.08;96703.88;4965065;28;103774;-59
2022/11/22 00:30:34;;;;;;;8.53;3.40;;;;;;;8.12;86.33;96701.16;4966165;28;103984;-59
2022/11/22 00:33:02;;;;;;;5.43;3.30;;;;;;;8.13;86.95;96697.56;4954001;28;104118;-58
2022/11/22 00:35:30;;;;;;;4.90;2.87;;;;;;;8.17;86.78;96699.75;4965769;28;103197;-58
2022/11/22 00:37:58;;;;;;;4.17;2.53;;;;;;;8.04;86.79;96704.50;4965045;28;104506;-58
2022/11/22 00:40:27;;;;;;;4.20;2.80;;;;;;;7.99;86.13;96698.03;4962600;28;103364;-59
2022/11/22 00:42:55;;;;;;;4.30;2.80;;;;;;;7.95;85.91;96705.34;4963945;28;103327;-61
2022/11/22 00:45:25;;;;;;;2.60;2.30;;;;;;;8.04;86.22;96714.19;4965016;28;103660;-61
2022/11/22 00:47:53;;;;;;;3.00;2.33;;;;;;;8.07;86.63;96708.66;4963001;28;102710;-61
2022/11/22 00:50:21;;;;;;;4.33;2.40;;;;;;;8.18;85.96;96716.38;4962850;28;104181;-58
2022/11/22 00:52:49;;;;;;;2.77;2.30;;;;;;;8.24;86.12;96726.31;4962873;28;103046;-58
2022/11/22 00:55:17;;;;;;;3.37;2.03;;;;;;;8.26;86.31;96727.00;4964393;28;102830;-58
2022/11/22 00:57:45;;;;;;;4.27;2.00;;;;;;;8.22;86.74;96730.91;4966498;28;104594;-58
2022/11/22 01:00:13;;;;;;;4.83;2.40;;;;;;;8.21;85.76;96731.88;4967357;28;103281;-58
2022/11/22 01:02:45;;;;;;;3.47;2.40;;;;;;;8.24;86.15;96736.84;4963896;28;103273;-58
2022/11/22 01:05:13;;;;;;;2.60;2.10;;;;;;;8.31;86.14;96743.19;4961111;28;102669;-59
2022/11/22 01:07:41;;;;;;;4.30;2.93;;;;;;;8.34;85.74;96747.34;4965859;28;104189;-58
2022/11/22 01:10:10;;;;;;;4.27;3.07;;;;;;;8.21;86.52;96749.44;4966844;28;104307;-59
2022/11/22 01:12:38;;;;;;;13.10;6.17;;;;;;;7.91;87.91;96751.31;4964390;28;104238;-58
2022/11/22 01:15:07;;;;;;;7.70;4.33;;;;;;;7.97;88.70;96760.44;4968548;28;102766;-58
2022/11/22 01:17:34;;;;;;;5.80;3.83;;;;;;;7.98;88.81;96751.56;4969569;28;102684;-59
2022/11/22 01:20:05;;;;;;;6.23;4.07;;;;;;;7.95;89.38;96757.09;4967991;28;103037;-58
2022/11/22 01:22:32;;;;;;;7.17;3.07;;;;;;;8.03;88.19;96759.84;4965218;28;103381;-58
2022/11/22 01:25:00;;;;;;;3.30;2.00;;;;;;;8.08;87.63;96761.09;4970325;28;103116;-59
2022/11/22 01:27:28;;;;;;;5.13;2.07;;;;;;;8.02;87.47;96758.22;4966777;28;103451;-59
2022/11/22 01:29:56;;;;;;;3.67;1.50;;;;;;;8.18;86.94;96758.44;4967600;28;104047;-58
2022/11/22 01:32:24;;;;;;;2.97;1.90;;;;;;;8.17;86.16;96760.25;4964935;28;103240;-58
2022/11/22 01:34:52;;;;;;;2.63;1.70;;;;;;;8.31;86.37;96763.44;4965858;28;102804;-58
2022/11/22 01:37:26;;;;;;;2.40;1.87;;;;;;;8.34;86.40;96769.22;4963682;28;104125;-58
2022/11/22 01:39:54;;;;;;;3.00;1.47;;;;;;;8.35;86.34;96770.06;4966454;28;103934;-58
2022/11/22 01:42:22;;;;;;;3.17;1.90;;;;;;;8.30;85.89;96773.13;4968700;28;103257;-58
2022/11/22 01:44:50;;;;;;;1.97;1.70;;;;;;;8.24;86.99;96763.16;4967840;28;103283;-58
2022/11/22 01:47:21;;;;;;;2.77;1.40;;;;;;;8.31;86.28;96766.88;4955196;28;104474;-58
2022/11/22 01:49:55;;;;;;;4.43;2.03;;;;;;;8.01;86.98;96767.06;4966718;28;104215;-58
2022/11/22 01:52:25;;;;;;;1.70;1.57;;;;;;;8.02;86.89;96771.38;4967074;28;103175;-58
2022/11/22 01:54:58;;;;;;;2.93;1.90;;;;;;;8.22;86.32;96770.34;4973542;28;103694;-59
2022/11/22 01:57:31;;;;;;;3.97;1.60;;;;;;;8.36;86.51;96767.31;4970676;28;102857;-58
2022/11/22 02:00:03;;;;;;;3.83;1.60;;;;;;;8.21;86.33;96767.84;4961599;28;103183;-58
2022/11/22 02:02:34;;;;;;;4.37;1.60;;;;;;;8.30;86.28;96762.59;4961927;28;103170;-58
2022/11/22 02:05:05;;;;;;;3.03;1.80;;;;;;;8.31;86.12;96766.88;4965645;28;102753;-58
2022/11/22 02:07:40;;;;;;;2.77;1.83;;;;;;;8.15;87.00;96770.09;4965134;28;103873;-58
2022/11/22 02:10:10;;;;;;;1.80;1.50;;;;;;;8.27;86.48;96775.19;4964082;28;104167;-59
2022/11/22 02:12:39;;;;;;;2.50;1.07;;;;;;;8.31;86.69;96784.50;4962621;28;103234;-59
2022/11/22 02:15:08;;;;;;;2.53;1.70;;;;;;;8.29;87.01;96778.53;4965154;28;103661;-59
2022/11/22 02:17:36;;;;;;;2.90;1.77;;;;;;;8.24;87.23;96773.66;4965662;28;102752;-59
2022/11/22 02:20:06;;;;;;;3.90;1.60;;;;;;;8.32;87.08;96784.34;4964903;28;103821;-58
2022/11/22 02:22:40;;;;;;;3.70;1.77;;;;;;;8.32;87.40;96789.59;4967835;28;103351;-59
2022/11/22 02:25:19;;;;;;;2.80;1.80;;;;;;;8.38;87.86;96777.66;4967882;28;102776;-58
2022/11/22 02:27:48;;;;;;;3.07;1.90;;;;;;;8.32;88.88;96783.50;4984635;28;103785;-58
2022/11/22 02:30:19;;;;;;;2.90;1.50;;;;;;;8.25;89.16;96777.97;4967848;28;103241;-58
2022/11/22 02:32:47;;;;;;;2.93;1.60;;;;;;;8.13;90.13;96786.97;4969037;28;103238;-59
2022/11/22 02:35:18;;;;;;;2.87;1.70;;;;;;;7.99;91.38;96790.06;4966243;28;103830;-59
2022/11/22 02:37:48;;;;;;;2.87;1.60;;;;;;;8.24;90.56;96799.97;4967204;28;104336;-58
2022/11/22 02:40:17;;;;;;;2.37;1.60;;;;;;;8.19;90.67;96796.94;4966377;28;103653;-58
2022/11/22 02:42:52;;;;;;;1.60;1.30;;;;;;;8.17;90.89;96804.97;4982605;28;104321;-59
2022/11/22 02:45:20;;;;;;;2.70;1.50;;;;;;;8.10;91.27;96803.88;4971931;28;102701;-59
2022/11/22 02:47:48;;;;;;;2.03;1.40;;;;;;;8.13;90.74;96802.75;4968470;28;104636;-59
2022/11/22 02:50:15;;;;;;;1.50;1.07;;;;;;;8.20;90.31;96795.94;4969345;28;104053;-59
2022/11/22 02:52:43;;;;;;;2.20;1.23;;;;;;;8.19;90.27;96789.06;4968494;28;103198;-59
2022/11/22 02:55:11;;;;;;;4.37;1.27;;;;;;;8.19;90.45;96796.94;4968652;28;103555;-58
2022/11/22 02:57:39;;;;;;;1.73;0.93;;;;;;;8.09;91.17;96780.34;4968593;28;102781;-59
2022/11/22 03:00:12;;;;;;;1.77;1.00;;;;;;;8.23;90.22;96793.03;4965756;28;104390;-59
2022/11/22 03:02:40;;;;;;;2.27;1.60;;;;;;;8.18;89.78;96788.22;4963515;28;103174;-59
2022/11/22 03:05:08;;;;;;;2.70;1.57;;;;;;;8.20;89.72;96798.59;4974134;28;102662;-58
2022/11/22 03:07:36;;;;;;;2.00;1.13;;;;;;;8.18;90.03;96796.09;4967777;28;104396;-59
2022/11/22 03:10:05;;;;;;;3.17;1.40;;;;;;;8.07;90.20;96798.06;4967343;28;103047;-59
2022/11/22 03:12:33;;;;;;;3.67;1.30;;;;;;;8.18;89.79;96803.16;4978673;28;103325;-58
2022/11/22 03:15:01;;;;;;;1.50;1.40;;;;;;;8.12;89.54;96801.09;4964746;28;102794;-58
2022/11/22 03:17:30;;;;;;;1.60;1.07;;;;;;;8.10;90.16;96808.31;4963287;28;102992;-58
2022/11/22 03:19:58;;;;;;;2.20;1.20;;;;;;;8.11;89.89;96816.03;4958671;28;105340;-58
2022/11/22 03:22:26;;;;;;;2.80;1.60;;;;;;;7.94;90.90;96813.31;4966736;28;103161;-59
2022/11/22 03:24:54;;;;;;;2.40;1.43;;;;;;;7.85;91.05;96819.41;4965712;28;102749;-59
2022/11/22 03:27:22;;;;;;;1.37;1.20;;;;;;;7.71;91.78;96822.44;4965343;28;104090;-58
2022/11/22 03:29:49;;;;;;;2.80;1.50;;;;;;;7.72;92.00;96819.66;4965493;28;104098;-59
2022/11/22 03:32:17;;;;;;;3.13;1.60;;;;;;;7.66;92.18;96829.91;4966217;28;103270;-59
2022/11/22 03:34:46;;;;;;;3.37;1.40;;;;;;;7.70;91.97;96812.88;4966248;28;102732;-59
2022/11/22 03:37:14;;;;;;;4.53;1.80;;;;;;;7.66;92.36;96822.03;4966057;28;104116;-59
2022/11/22 03:39:42;;;;;;;3.23;1.80;;;;;;;7.86;91.64;96827.13;4964464;28;103373;-58
2022/11/22 03:42:10;;;;;;;4.40;1.67;;;;;;;7.75;92.30;96829.91;4973239;28;103233;-59
2022/11/22 03:44:43;;;;;;;3.00;1.40;;;;;;;7.78;91.75;96834.06;4975837;28;102780;-58
2022/11/22 03:47:11;;;;;;;4.03;1.57;;;;;;;7.90;91.36;96836.41;4971526;28;102807;-58
2022/11/22 03:49:39;;;;;;;2.00;1.57;;;;;;;7.84;91.67;96834.34;4971134;28;103506;-58
2022/11/22 03:52:08;;;;;;;2.53;1.47;;;;;;;7.70;92.37;96826.03;4971893;28;103843;-59
2022/11/22 03:54:36;;;;;;;4.47;1.70;;;;;;;7.79;91.92;96828.66;4964401;28;102898;-58
2022/11/22 03:57:04;;;;;;;4.43;1.83;;;;;;;7.80;91.38;96821.63;4969222;28;103673;-59
2022/11/22 03:59:32;;;;;;;5.40;2.30;;;;;;;7.68;91.76;96828.81;4963859;28;104045;-58
2022/11/22 04:02:00;;;;;;;3.90;2.23;;;;;;;7.75;91.76;96831.72;4968186;28;103114;-59
2022/11/22 04:04:28;;;;;;;2.97;1.87;;;;;;;7.86;91.41;96827.13;4966133;28;102878;-60
2022/11/22 04:06:56;;;;;;;2.27;1.70;;;;;;;7.90;90.92;96827.69;4965243;28;103554;-59
2022/11/22 04:09:25;;;;;;;2.83;1.90;;;;;;;7.83;91.09;96824.78;4966829;28;103382;-58
2022/11/22 04:11:58;;;;;;;4.80;2.20;;;;;;;7.93;90.73;96838.78;4975527;28;105056;-58
2022/11/22 04:17:08;;;;;;;4.07;2.00;;;;;;;7.66;91.32;96841.28;4959242;28;103855;-58
2022/11/22 04:19:36;;;;;;;3.97;1.73;;;;;;;7.67;91.88;96836.81;4944528;28;103297;-58
2022/11/22 04:22:02;;;;;;;3.17;1.43;;;;;;;7.62;91.24;96839.03;4968200;28;103280;-58
2022/11/22 04:27:17;;;;;;;2.37;1.40;;;;;;;7.69;90.86;96851.47;4966132;28;102862;-58
2022/11/22 04:29:45;;;;;;;3.07;1.53;;;;;;;7.55;91.05;96850.09;4964393;28;103853;-58
2022/11/22 04:34:58;;;;;;;4.40;1.47;;;;;;;7.57;90.60;96858.69;4971489;28;102752;-58
2022/11/22 04:37:26;;;;;;;1.93;1.30;;;;;;;7.68;90.57;96855.09;4971998;28;103880;-58
2022/11/22 04:39:55;;;;;;;3.60;1.60;;;;;;;7.72;90.17;96859.09;4968361;28;104660;-59
2022/11/22 04:45:10;;;;;;;4.20;1.60;;;;;;;7.40;90.16;96853.25;4972729;28;102747;-58
2022/11/22 04:53:07;;;;;;;3.43;1.50;;;;;;;7.29;90.57;96840.25;4962091;28;104658;-59
2022/11/22 04:55:36;;;;;;;4.00;1.53;;;;;;;7.25;91.05;96837.03;4975750;28;103083;-58
2022/11/22 04:58:04;;;;;;;4.50;1.40;;;;;;;7.24;90.35;96835.38;4973642;28;103699;-58
2022/11/22 05:00:32;;;;;;;2.63;1.10;;;;;;;7.27;90.24;96837.72;4972958;28;104165;-58
2022/11/22 05:03:01;;;;;;;5.10;1.50;;;;;;;6.94;89.70;96843.31;4973046;28;103278;-58
2022/11/22 05:05:29;;;;;;;4.40;1.70;;;;;;;6.66;91.35;96836.16;4971482;28;102667;-58
2022/11/22 05:07:58;;;;;;;5.93;1.77;;;;;;;6.29;94.26;96839.28;4969731;28;103572;-58
2022/11/22 05:10:26;;;;;;;2.43;1.40;;;;;;;6.23;94.56;96839.78;4971574;28;104363;-58
2022/11/22 05:12:56;;;;;;;3.50;1.70;;;;;;;6.70;94.02;96841.03;4972720;28;103234;-58
2022/11/22 05:15:24;;;;;;;3.10;1.10;;;;;;;6.92;92.90;96845.25;4969807;28;103064;-58
2022/11/22 05:17:54;;;;;;;2.80;0.90;;;;;;;7.00;91.86;96848.03;4971464;28;102841;-58
2022/11/22 05:20:22;;;;;;;4.73;1.40;;;;;;;6.86;90.48;96856.25;4966789;28;103966;-58
2022/11/22 05:25:35;;;;;;;5.33;3.03;;;;;;;6.90;89.68;96878.69;4971228;28;103245;-58
2022/11/22 05:28:04;;;;;;;5.07;2.07;;;;;;;6.90;90.07;96879.50;4969335;28;103921;-58
2022/11/22 05:30:32;;;;;;;2.13;1.70;;;;;;;6.86;90.08;96885.13;4967588;28;103961;-58
2022/11/22 05:33:00;;;;;;;5.40;1.90;;;;;;;6.81;90.18;96884.72;4958941;28;104167;-58
2022/11/22 05:35:28;;;;;;;3.03;1.67;;;;;;;6.78;90.33;96879.72;4968349;28;102766;-60
2022/11/22 05:37:56;;;;;;;4.47;2.00;;;;;;;6.65;90.04;96876.50;4970059;28;102787;-59
2022/11/22 05:40:24;;;;;;;4.20;2.00;;;;;;;6.55;91.24;96879.03;4968915;28;104195;-59
2022/11/22 05:42:52;;;;;;;2.50;1.90;;;;;;;6.67;92.18;96883.25;4969142;28;103282;-60
2022/11/22 05:45:21;;;;;;;3.47;1.60;;;;;;;6.78;91.96;96890.22;4970364;28;102778;-59
2022/11/22 05:47:49;;;;;;;3.97;2.30;;;;;;;6.86;91.46;96893.00;4973460;28;103649;-59
2022/11/22 05:50:17;;;;;;;4.97;2.20;;;;;;;6.93;91.57;96894.16;4970610;28;104447;-60
2022/11/22 05:52:53;;;;;;;2.57;1.57;;;;;;;6.93;91.25;96896.78;4970156;28;104237;-60
2022/11/22 05:55:21;;;;;;;3.93;1.93;;;;;;;6.90;91.92;96899.69;4970489;28;102760;-60
2022/11/22 05:57:49;;;;;;;2.63;1.73;;;;;;;6.92;91.72;96898.59;4968444;28;103700;-60
2022/11/22 06:00:18;;;;;;;6.63;2.00;;;;;;;6.64;92.43;96895.81;4966117;28;104291;-60
2022/11/22 06:02:47;;;;;;;4.47;2.60;;;;;;;6.42;94.53;96904.66;4966880;28;103188;-60
2022/11/22 06:05:15;;;;;;;4.57;1.83;;;;;;;6.67;94.63;96903.41;4972005;28;102759;-61
2022/11/22 06:07:43;;;;;;;3.07;1.80;;;;;;;6.84;94.27;96910.69;4971785;28;104036;-58
2022/11/22 06:10:11;;;;;;;5.47;2.47;;;;;;;6.83;93.85;96914.28;4971732;28;103712;-60
2022/11/22 06:12:39;;;;;;;5.70;2.53;;;;;;;6.36;95.13;96911.25;4972362;28;103436;-59
2022/11/22 06:15:09;;;;;;;4.23;2.20;;;;;;;6.51;96.05;96913.56;4973500;28;102685;-60
2022/11/22 06:17:37;;;;;;;5.90;2.47;;;;;;;6.62;95.63;96916.09;4973907;28;103867;-60
2022/11/22 06:20:08;;;;;;;3.00;2.10;;;;;;;6.77;94.99;96920.03;4971787;28;103929;-60
2022/11/22 06:22:39;;;;;;;3.83;2.20;;;;;;;6.80;93.72;96925.88;4974410;28;103288;-59
2022/11/22 06:25:08;;;;;;;4.87;1.83;;;;;;;6.94;94.25;96920.28;4972336;28;102823;-60
2022/11/22 06:27:36;;;;;;;3.50;1.67;;;;;;;7.06;93.73;96923.66;4971476;28;103685;-59
2022/11/22 06:30:05;;;;;;;3.57;2.27;;;;;;;7.02;92.56;96930.09;4973586;28;103766;-60
2022/11/22 06:32:33;;;;;;;3.87;1.90;;;;;;;6.83;92.42;96924.78;4969242;28;103282;-60
2022/11/22 06:35:02;;;;;;;2.67;1.67;;;;;;;6.99;92.79;96939.09;4971379;28;102838;-60
2022/11/22 06:37:31;;;;;;;5.73;1.93;;;;;;;6.96;92.16;96941.16;4972059;28;104005;-60
2022/11/22 06:39:59;;;;;;;6.03;1.97;;;;;;;6.86;93.04;96941.09;4971149;28;104283;-60
2022/11/22 06:42:27;;;;;;;1.97;1.50;;;;;;;6.69;93.47;96943.47;4973375;28;103387;-60
2022/11/22 06:44:55;;;;;;;2.30;1.50;;;;;;;6.79;93.66;96950.44;4982055;28;102883;-60
2022/11/22 06:47:23;;;;;;;2.63;1.40;;;;;;;6.95;93.14;96960.50;4970107;28;103850;-61
2022/11/22 06:49:51;;;;;;;1.93;1.33;;;;;;;7.05;92.93;96971.03;4971936;28;104182;-60
2022/11/22 06:52:19;;;;;;;3.53;1.97;;;;;;;7.08;92.29;96971.59;4970364;28;104296;-60
2022/11/22 06:54:48;;;;;;;4.73;1.73;;;;;;;7.02;91.61;96987.06;4971822;28;102725;-60
2022/11/22 06:57:16;;;;;;;2.03;1.27;;;;;;;7.09;92.36;96990.81;4971247;28;103949;-60
2022/11/22 06:59:44;;;;;;;1.87;1.40;;;;;;;7.15;91.93;96999.03;4969104;28;103007;-60
2022/11/22 07:02:12;;;;;;;2.17;1.80;;;;;;;7.24;91.87;96997.41;4972080;28;104200;-60
2022/11/22 07:04:40;;;;;;;2.73;1.57;;;;;;;7.24;91.20;96995.59;4974270;28;103299;-61
2022/11/22 07:07:27;;;;;;;8.70;2.20;;;;;;;6.98;91.20;97013.56;4974282;28;104824;-60
2022/11/22 07:09:57;;;;;;;2.00;1.23;;;;;;;7.09;91.49;97007.41;4972513;28;104115;-60
2022/11/22 07:12:25;;;;;;;4.10;1.37;;;;;;;7.17;91.30;97017.25;4975172;28;103150;-60
2022/11/22 07:14:55;;;;;;;5.83;2.53;;;;;;;7.19;91.18;97016.16;4974964;28;102716;-60
2022/11/22 07:17:23;;;;;;;6.80;2.63;;;;;;;7.25;91.20;97026.16;4975759;28;102910;-60
2022/11/22 07:19:51;;;;;;;3.43;2.27;;;;;;;7.26;90.77;97019.94;4975191;28;104202;-59
2022/11/22 07:22:18;;;;;;;1.80;1.57;;;;;;;7.26;90.90;97017.31;4976034;28;103794;-59
2022/11/22 07:24:46;;;;;;;5.60;2.67;;;;;;;7.11;90.95;97023.03;4974004;28;102779;-60
2022/11/22 07:27:16;;;;;;;3.43;1.93;;;;;;;7.12;91.66;97025.53;4975440;28;102694;-60
2022/11/22 07:29:43;;;;;;;4.10;1.90;;;;;;;7.21;91.83;97029.19;4975299;28;104052;-61
2022/11/22 07:32:11;;;;;;;9.87;6.33;;;;;;;7.02;91.52;97032.50;4973725;28;103169;-60
2022/11/22 07:34:39;;;;;;;10.03;5.00;;;;;;;7.13;91.22;97037.69;4973215;28;102887;-59
2022/11/22 07:37:07;;;;;;;7.70;4.67;;;;;;;7.24;92.19;97037.59;4974305;28;103980;-60
2022/11/22 07:39:36;;;;;;;5.67;3.50;;;;;;;7.34;91.70;97035.88;4973139;28;103229;-60
2022/11/22 07:42:04;;;;;;;6.20;3.40;;;;;;;7.42;91.52;97049.19;4973381;28;104124;-60
2022/11/22 07:44:33;;;;;;;4.87;2.97;;;;;;;7.47;91.06;97044.38;4974989;28;102882;-60
2022/11/22 07:47:01;;;;;;;4.57;3.07;;;;;;;7.47;90.68;97052.25;4974874;28;102767;-60
2022/11/22 07:49:28;;;;;;;6.30;3.20;;;;;;;7.42;90.78;97057.06;4974565;28;103210;-60
2022/11/22 07:51:58;;;;;;;3.83;1.93;;;;;;;7.35;91.64;97055.94;4972080;28;103254;-60
2022/11/22 07:54:26;;;;;;;3.30;1.70;;;;;;;7.47;92.03;97056.66;4972168;28;103708;-60
2022/11/22 07:56:54;;;;;;;5.90;2.50;;;;;;;7.54;91.63;97063.09;4975368;28;102984;-60
2022/11/22 07:59:22;;;;;;;3.80;2.30;;;;;;;7.55;91.37;97051.63;4972884;28;103945;-60
2022/11/22 08:01:51;;;;;;;6.90;3.87;;;;;;;7.46;91.59;97050.59;4973002;28;103169;-60
2022/11/22 08:04:19;;;;;;;5.77;3.40;;;;;;;7.45;92.41;97054.19;4970145;28;102771;-60
2022/11/22 08:06:47;;;;;;;5.00;2.90;;;;;;;7.43;92.81;97071.88;4975300;28;103518;-60
2022/11/22 08:09:15;;;;;;;13.23;6.93;;;;;;;7.37;92.73;97064.53;4973316;28;104130;-60
2022/11/22 08:11:42;;;;;;;11.77;6.73;;;;;;;7.34;93.27;97064.78;4974016;28;103204;-60
2022/11/22 08:14:11;;;;;;;7.03;4.17;;;;;;;7.29;93.37;97066.97;4976168;28;103558;-60
2022/11/22 08:16:41;;;;;;;13.83;7.97;;;;;;;7.44;92.86;97068.28;4975018;28;102718;-60
2022/11/22 08:19:14;;;;;;;15.43;9.67;;;;;;;7.66;93.03;97066.47;4974723;28;103253;-60
2022/11/22 08:21:45;;;;;;;12.23;7.63;;;;;;;7.75;92.67;97068.28;4966905;28;103041;-60
2022/11/22 08:24:14;;;;;;;26.13;14.93;;;;;;;7.56;92.73;97061.16;4973020;28;102749;-61
2022/11/22 08:26:42;;;;;;;10.33;5.60;;;;;;;7.66;91.79;97066.47;4973675;28;103749;-60
2022/11/22 08:29:12;;;;;;;7.37;3.30;;;;;;;7.50;92.57;97062.50;4973514;28;103446;-60
2022/11/22 08:31:41;;;;;;;4.90;2.93;;;;;;;7.63;92.32;97066.72;4987230;28;105110;-60
2022/11/22 08:34:10;;;;;;;6.00;2.53;;;;;;;7.85;92.04;97066.53;4974883;28;102776;-60
2022/11/22 08:36:38;;;;;;;2.67;2.30;;;;;;;7.99;91.38;97058.25;4973760;28;102736;-60
2022/11/22 08:39:06;;;;;;;6.43;2.33;;;;;;;8.13;91.34;97061.34;4974505;28;104123;-60
2022/11/22 08:41:34;;;;;;;8.70;2.97;;;;;;;8.17;91.11;97059.25;4974037;28;103357;-60
2022/11/22 08:44:02;;;;;;;6.57;2.60;;;;;;;8.26;90.67;97061.09;4972547;28;102733;-60
2022/11/22 08:46:30;;;;;;;6.17;3.20;;;;;;;8.20;90.31;97058.19;4974951;28;102848;-60
2022/11/22 08:48:58;;;;;;;7.97;2.90;;;;;;;8.30;91.31;97056.44;4974135;28;103719;-60
2022/11/22 08:51:27;;;;;;;4.20;2.33;;;;;;;8.44;90.75;97048.97;4973443;28;103296;-60
2022/11/22 08:53:55;;;;;;;6.13;2.53;;;;;;;8.30;91.40;97046.75;4973048;28;102997;-60
2022/11/22 08:56:23;;;;;;;6.00;2.50;;;;;;;8.31;91.52;97040.50;4973522;28;103637;-60
2022/11/22 08:58:50;;;;;;;6.73;2.53;;;;;;;8.18;90.72;97053.06;4973975;28;103272;-60
2022/11/22 09:01:20;;;;;;;8.43;3.03;;;;;;;8.26;89.88;97040.03;4973851;28;103195;-60
2022/11/22 09:03:48;;;;;;;7.17;2.87;;;;;;;8.02;90.58;97036.97;4972302;28;102826;-60
2022/11/22 09:06:19;;;;;;;6.63;2.40;;;;;;;8.28;90.06;97032.88;4973546;28;104023;-60
2022/11/22 09:09:10;;;;;;;9.23;3.30;;;;;;;8.41;89.52;97030.81;4973810;28;103218;-60
2022/11/22 09:11:58;;;;;;;7.20;2.80;;;;;;;8.34;90.70;97027.06;4972466;28;103199;-61
2022/11/22 09:14:26;;;;;;;4.20;2.30;;;;;;;8.55;88.44;97030.41;4972649;28;102901;-61
2022/11/22 09:16:54;;;;;;;5.33;2.47;;;;;;;8.68;87.90;97023.06;4975632;28;103654;-62
2022/11/22 09:19:22;;;;;;;7.60;3.17;;;;;;;8.40;88.92;97025.69;4972634;28;103296;-62
2022/11/22 09:21:50;;;;;;;7.63;2.60;;;;;;;8.19;88.41;97025.78;4972433;28;104325;-62
2022/11/22 09:24:19;;;;;;;6.07;2.23;;;;;;;8.56;87.43;97026.78;4973240;28;102671;-62
2022/11/22 09:26:47;;;;;;;5.47;2.30;;;;;;;8.80;86.86;97039.56;4974428;28;104271;-61
2022/11/22 09:29:17;;;;;;;5.30;1.97;;;;;;;9.01;85.84;97036.78;4974901;28;104057;-62
2022/11/22 09:31:45;;;;;;;7.13;2.00;;;;;;;9.26;85.59;97046.69;4972943;28;103132;-62
2022/11/22 09:34:13;;;;;;;5.30;2.07;;;;;;;9.32;84.51;97051.38;4971646;28;102719;-62
2022/11/22 09:36:41;;;;;;;4.27;2.20;;;;;;;9.47;84.58;97055.22;4970169;28;102841;-62
2022/11/22 09:39:08;;;;;;;5.30;1.70;;;;;;;9.58;85.04;97062.97;4970953;28;103707;-62
2022/11/22 09:41:58;;;;;;;4.60;2.30;;;;;;;9.60;84.63;97066.28;4971552;28;103257;-62
2022/11/22 09:44:37;;;;;;;3.60;2.33;;;;;;;9.49;83.10;97069.09;4973260;28;102784;-59
2022/11/22 09:47:17;;;;;;;4.90;2.03;;;;;;;9.61;84.01;97072.38;4975159;28;104032;-59
2022/11/22 09:49:55;;;;;;;3.20;2.10;;;;;;;9.73;83.19;97077.34;4976172;28;103757;-59
2022/11/22 09:52:33;;;;;;;4.43;2.23;;;;;;;9.66;84.64;97081.53;4971685;28;103249;-59
2022/11/22 09:55:09;;;;;;;3.93;2.33;;;;;;;9.54;83.61;97081.88;4973216;28;102840;-59
2022/11/22 09:57:44;;;;;;;5.67;2.20;;;;;;;9.54;83.35;97085.34;4973012;28;102668;-60
2022/11/22 10:00:20;;;;;;;7.33;1.93;;;;;;;9.63;82.10;97086.25;4971586;28;103317;-59
2022/11/22 10:02:54;;;;;;;5.53;1.80;;;;;;;9.67;81.72;97099.03;4971183;28;104182;-62
2022/11/22 10:05:33;;;;;;;6.43;1.87;;;;;;;9.53;82.90;97093.38;4970421;28;102697;-62
2022/11/22 10:08:07;;;;;;;4.37;1.77;;;;;;;9.51;80.51;97096.16;4971335;28;103944;-59
2022/11/22 10:10:41;;;;;;;4.70;1.70;;;;;;;9.62;81.63;97106.53;4964492;28;104310;-59
2022/11/22 10:13:17;;;;;;;7.33;1.90;;;;;;;9.59;80.47;97112.09;4972274;28;103206;-59
2022/11/22 10:15:53;;;;;;;5.60;1.63;;;;;;;9.70;81.21;97105.81;4973546;28;103224;-59
2022/11/22 10:18:25;;;;;;;4.00;1.30;;;;;;;9.60;82.12;97103.19;4971279;28;104088;-59
2022/11/22 10:20:53;;;;;;;5.03;2.00;;;;;;;9.57;81.44;97102.66;4971423;28;104218;-59
2022/11/22 10:23:23;;;;;;;6.13;2.07;;;;;;;9.68;81.51;97100.69;4974130;28;103141;-59
2022/11/22 10:25:57;;;;;;;5.37;1.40;;;;;;;9.71;81.04;97110.13;4972745;28;102977;-59
2022/11/22 10:28:35;;;;;;;4.40;1.37;;;;;;;9.69;80.85;97110.25;4972094;28;103447;-59
2022/11/22 10:31:07;;;;;;;5.73;1.57;;;;;;;9.78;80.50;97108.56;4971989;28;103439;-59
2022/11/22 10:33:40;;;;;;;4.23;1.97;;;;;;;9.73;80.57;97109.00;4971889;28;103217;-59
2022/11/22 10:36:27;;;;;;;4.37;1.73;;;;;;;9.58;79.36;97105.16;4973729;28;102753;-59
2022/11/22 10:39:16;;;;;;;7.43;2.00;;;;;;;9.44;79.04;97102.97;4974160;28;103808;-61
2022/11/22 10:42:03;;;;;;;3.57;1.57;;;;;;;9.49;78.12;97100.72;4977645;28;104170;-61
2022/11/22 10:44:44;;;;;;;5.03;1.37;;;;;;;9.53;78.33;97112.66;4975407;28;103272;-61
2022/11/22 10:47:20;;;;;;;2.10;1.23;;;;;;;9.58;76.20;97114.84;4967709;28;102903;-61
2022/11/22 10:49:58;;;;;;;4.77;1.50;;;;;;;9.83;75.33;97115.06;4978124;28;103945;-61
2022/11/22 10:52:35;;;;;;;4.40;1.47;;;;;;;9.77;76.37;97118.28;4976780;28;103975;-62
2022/11/22 10:55:17;;;;;;;4.77;1.47;;;;;;;9.63;76.05;97108.19;4974403;28;103197;-61
2022/11/22 10:57:52;;;;;;;6.00;1.63;;;;;;;9.80;75.63;97111.88;4975975;28;103029;-62
2022/11/22 11:00:24;;;;;;;4.50;1.33;;;;;;;9.68;74.98;97105.97;4977945;28;103829;-61
2022/11/22 11:03:09;;;;;;;2.33;1.30;;;;;;;10.00;75.58;97110.00;4978955;28;104374;-61
2022/11/22 11:05:45;;;;;;;1.97;1.40;;;;;;;9.81;75.12;97110.91;4974430;28;103170;-61
2022/11/22 11:08:37;;;;;;;4.57;1.50;;;;;;;9.91;76.23;97112.53;4977911;28;102640;-61
2022/11/22 11:11:27;;;;;;;3.43;1.43;;;;;;;9.72;76.96;97112.59;4975275;28;103076;-61
2022/11/22 11:13:59;;;;;;;6.83;1.50;;;;;;;9.86;75.45;97116.56;4974923;28;104089;-61
2022/11/22 11:16:31;;;;;;;3.10;2.30;;;;;;;9.96;76.20;97108.63;4975329;28;103169;-59
2022/11/22 11:19:15;;;;;;;3.70;1.50;;;;;;;10.02;74.86;97102.78;4974792;28;102701;-59
2022/11/22 11:21:43;;;;;;;5.20;1.50;;;;;;;9.97;74.86;97105.00;4973154;28;103903;-60
2022/11/22 11:24:16;;;;;;;5.77;2.10;;;;;;;9.88;73.17;97094.34;4975067;28;104324;-60
2022/11/22 11:26:53;;;;;;;4.73;1.63;;;;;;;9.94;73.52;97100.06;4973388;28;103258;-60
2022/11/22 11:29:46;;;;;;;2.93;1.10;;;;;;;10.01;72.80;97090.56;4973224;28;102648;-61
2022/11/22 11:32:18;;;;;;;5.57;1.60;;;;;;;10.09;72.92;97083.59;4959930;28;104071;-61
2022/11/22 11:34:53;;;;;;;4.47;1.23;;;;;;;9.96;71.85;97076.97;4975222;28;103009;-60
2022/11/22 11:37:26;;;;;;;3.60;1.30;;;;;;;9.86;71.37;97077.84;4971934;28;103193;-61
2022/11/22 11:39:54;;;;;;;4.20;1.50;;;;;;;9.93;71.05;97079.91;4973685;28;102775;-62
2022/11/22 11:42:30;;;;;;;3.53;1.80;;;;;;;9.75;69.71;97085.09;4976019;28;102745;-62
2022/11/22 11:45:25;;;;;;;6.10;1.40;;;;;;;9.93;70.73;97083.38;4970843;28;104266;-62
2022/11/22 11:47:54;;;;;;;4.00;1.50;;;;;;;10.00;69.33;97068.63;4973803;28;103165;-62
2022/11/22 11:50:24;;;;;;;6.43;1.20;;;;;;;10.21;69.60;97073.69;4972635;28;102692;-62
2022/11/22 11:52:54;;;;;;;4.23;1.23;;;;;;;9.95;69.61;97075.31;4976055;28;102700;-62
2022/11/22 11:55:25;;;;;;;5.00;1.30;;;;;;;9.88;67.72;97078.53;4974118;28;104070;-62
2022/11/22 11:57:55;;;;;;;5.87;1.40;;;;;;;9.89;67.16;97069.66;4972985;28;104098;-62
2022/11/22 12:00:26;;;;;;;4.53;1.33;;;;;;;10.21;68.25;97048.16;4974235;28;102724;-62
2022/11/22 12:03:01;;;;;;;5.40;1.33;;;;;;;9.93;67.61;97045.63;4988393;28;103887;-62
2022/11/22 12:05:31;;;;;;;4.20;1.23;;;;;;;10.14;67.17;97035.66;4972664;28;103230;-62